sensor_id;sensor_type;location;lat;lon;timestamp;pressure;altitude;pressure_sealevel;temperature;humidity
65013;BME280;51715;39.432;-77.518;2022-12-18T00:00:16;99077.77;;;8.03;26.93
65013;BME280;51715;39.432;-77.518;2022-12-18T00:02:55;99077.01;;;7.64;26.82
65013;BME280;51715;39.432;-77.518;2022-12-18T00:05:33;99071.17;;;7.92;26.43
65013;BME280;51715;39.432;-77.518;2022-12-18T00:08:12;99061.67;;;8.15;26.36
65013;BME280;51715;39.432;-77.518;2022-12-18T00:10:50;99064.89;;;8.21;27.00
65013;BME280;51715;39.432;-77.518;2022-12-18T00:13:29;99068.70;;;7.80;26.97
65013;BME280;51715;39.432;-77.518;2022-12-18T00:16:09;99066.38;;;8.13;26.99
65013;BME280;51715;39.432;-77.518;2022-12-18T00:18:47;99065.63;;;8.19;27.45
65013;BME280;51715;39.432;-77.518;2022-12-18T00:21:26;99065.16;;;8.27;27.66
65013;BME280;51715;39.432;-77.518;2022-12-18T00:24:05;99066.34;;;8.04;27.26
65013;BME280;51715;39.432;-77.518;2022-12-18T00:26:44;99068.27;;;8.34;27.12
65013;BME280;51715;39.432;-77.518;2022-12-18T00:29:22;99069.50;;;8.07;27.88
65013;BME280;51715;39.432;-77.518;2022-12-18T00:32:01;99071.53;;;8.27;27.34
65013;BME280;51715;39.432;-77.518;2022-12-18T00:34:39;99079.32;;;8.35;27.68
65013;BME280;51715;39.432;-77.518;2022-12-18T00:37:17;99083.21;;;8.29;27.67
65013;BME280;51715;39.432;-77.518;2022-12-18T00:39:55;99080.90;;;8.37;28.47
65013;BME280;51715;39.432;-77.518;2022-12-18T00:42:33;99083.31;;;8.29;28.13
65013;BME280;51715;39.432;-77.518;2022-12-18T00:45:12;99084.31;;;8.30;28.21
65013;BME280;51715;39.432;-77.518;2022-12-18T00:47:50;99086.35;;;8.18;28.28
65013;BME280;51715;39.432;-77.518;2022-12-18T00:50:29;99086.28;;;8.03;28.18
65013;BME280;51715;39.432;-77.518;2022-12-18T00:53:07;99088.88;;;8.11;27.97
65013;BME280;51715;39.432;-77.518;2022-12-18T00:55:46;99093.09;;;7.81;28.35
65013;BME280;51715;39.432;-77.518;2022-12-18T00:58:24;99097.24;;;8.23;28.48
65013;BME280;51715;39.432;-77.518;2022-12-18T01:01:03;99091.95;;;8.02;28.60
65013;BME280;51715;39.432;-77.518;2022-12-18T01:03:41;99097.57;;;7.97;28.85
65013;BME280;51715;39.432;-77.518;2022-12-18T01:06:20;99107.45;;;7.65;28.80
65013;BME280;51715;39.432;-77.518;2022-12-18T01:08:59;99111.46;;;7.98;28.78
65013;BME280;51715;39.432;-77.518;2022-12-18T01:11:37;99109.78;;;8.02;29.05
65013;BME280;51715;39.432;-77.518;2022-12-18T01:14:15;99103.80;;;8.02;29.14
65013;BME280;51715;39.432;-77.518;2022-12-18T01:16:53;99109.90;;;7.57;29.56
65013;BME280;51715;39.432;-77.518;2022-12-18T01:19:31;99110.71;;;6.94;30.57
65013;BME280;51715;39.432;-77.518;2022-12-18T01:22:10;99112.73;;;7.16;29.69
65013;BME280;51715;39.432;-77.518;2022-12-18T01:24:48;99111.20;;;7.85;29.67
65013;BME280;51715;39.432;-77.518;2022-12-18T01:27:26;99118.42;;;7.85;29.49
65013;BME280;51715;39.432;-77.518;2022-12-18T01:30:04;99118.30;;;7.76;29.62
65013;BME280;51715;39.432;-77.518;2022-12-18T01:32:42;99122.20;;;7.65;29.56
65013;BME280;51715;39.432;-77.518;2022-12-18T01:35:20;99120.05;;;7.77;29.43
65013;BME280;51715;39.432;-77.518;2022-12-18T01:38:00;99117.29;;;7.65;29.39
65013;BME280;51715;39.432;-77.518;2022-12-18T01:40:38;99116.95;;;8.19;29.52
65013;BME280;51715;39.432;-77.518;2022-12-18T01:43:16;99116.27;;;7.75;29.20
65013;BME280;51715;39.432;-77.518;2022-12-18T01:45:54;99123.20;;;7.60;29.65
65013;BME280;51715;39.432;-77.518;2022-12-18T01:48:33;99127.56;;;7.73;29.80
65013;BME280;51715;39.432;-77.518;2022-12-18T01:51:12;99135.64;;;6.96;30.08
65013;BME280;51715;39.432;-77.518;2022-12-18T01:53:50;99142.35;;;6.98;30.32
65013;BME280;51715;39.432;-77.518;2022-12-18T01:56:28;99140.07;;;7.03;30.07
65013;BME280;51715;39.432;-77.518;2022-12-18T01:59:08;99144.54;;;7.40;30.26
65013;BME280;51715;39.432;-77.518;2022-12-18T02:01:47;99142.65;;;7.56;30.33
65013;BME280;51715;39.432;-77.518;2022-12-18T02:04:27;99138.49;;;7.66;30.26
65013;BME280;51715;39.432;-77.518;2022-12-18T02:07:14;99137.42;;;7.51;29.92
65013;BME280;51715;39.432;-77.518;2022-12-18T02:09:59;99137.60;;;7.61;29.77
65013;BME280;51715;39.432;-77.518;2022-12-18T02:12:43;99142.14;;;7.66;29.97
65013;BME280;51715;39.432;-77.518;2022-12-18T02:15:31;99149.38;;;7.55;30.70
65013;BME280;51715;39.432;-77.518;2022-12-18T02:18:14;99148.14;;;7.53;30.34
65013;BME280;51715;39.432;-77.518;2022-12-18T02:21:03;99142.27;;;7.52;30.02
65013;BME280;51715;39.432;-77.518;2022-12-18T02:23:55;99139.53;;;7.97;30.21
65013;BME280;51715;39.432;-77.518;2022-12-18T02:26:37;99132.83;;;7.72;31.05
65013;BME280;51715;39.432;-77.518;2022-12-18T02:29:21;99132.83;;;7.78;31.09
65013;BME280;51715;39.432;-77.518;2022-12-18T02:32:03;99131.78;;;7.95;30.96
65013;BME280;51715;39.432;-77.518;2022-12-18T02:34:44;99140.54;;;7.62;30.57
65013;BME280;51715;39.432;-77.518;2022-12-18T02:37:24;99140.08;;;7.37;30.28
65013;BME280;51715;39.432;-77.518;2022-12-18T02:40:06;99141.94;;;7.38;30.87
65013;BME280;51715;39.432;-77.518;2022-12-18T02:42:44;99137.86;;;7.54;30.95
65013;BME280;51715;39.432;-77.518;2022-12-18T02:45:23;99129.19;;;7.57;30.83
65013;BME280;51715;39.432;-77.518;2022-12-18T02:48:01;99135.25;;;7.15;31.39
65013;BME280;51715;39.432;-77.518;2022-12-18T02:50:44;99141.35;;;7.36;31.25
65013;BME280;51715;39.432;-77.518;2022-12-18T02:53:28;99151.52;;;7.34;31.35
65013;BME280;51715;39.432;-77.518;2022-12-18T02:56:13;99151.38;;;7.18;31.62
65013;BME280;51715;39.432;-77.518;2022-12-18T02:58:59;99143.72;;;7.21;31.62
65013;BME280;51715;39.432;-77.518;2022-12-18T03:01:43;99149.78;;;7.45;31.40
65013;BME280;51715;39.432;-77.518;2022-12-18T03:04:28;99154.25;;;7.26;31.55
65013;BME280;51715;39.432;-77.518;2022-12-18T03:07:14;99161.14;;;7.30;31.62
65013;BME280;51715;39.432;-77.518;2022-12-18T03:09:54;99162.52;;;7.28;31.64
65013;BME280;51715;39.432;-77.518;2022-12-18T03:12:36;99162.01;;;7.13;31.74
65013;BME280;51715;39.432;-77.518;2022-12-18T03:15:17;99165.95;;;7.28;31.62
65013;BME280;51715;39.432;-77.518;2022-12-18T03:18:01;99169.52;;;7.54;31.85
65013;BME280;51715;39.432;-77.518;2022-12-18T03:20:41;99168.89;;;7.45;32.33
65013;BME280;51715;39.432;-77.518;2022-12-18T03:23:25;99168.07;;;7.54;32.87
65013;BME280;51715;39.432;-77.518;2022-12-18T03:26:08;99172.99;;;7.01;33.07
65013;BME280;51715;39.432;-77.518;2022-12-18T03:28:52;99175.58;;;7.06;32.92
65013;BME280;51715;39.432;-77.518;2022-12-18T03:31:34;99180.33;;;7.26;32.46
65013;BME280;51715;39.432;-77.518;2022-12-18T03:34:15;99184.57;;;7.33;32.51
65013;BME280;51715;39.432;-77.518;2022-12-18T03:36:56;99179.09;;;7.20;32.19
65013;BME280;51715;39.432;-77.518;2022-12-18T03:39:35;99186.74;;;7.08;32.91
65013;BME280;51715;39.432;-77.518;2022-12-18T03:42:21;99175.82;;;7.26;32.86
65013;BME280;51715;39.432;-77.518;2022-12-18T03:45:06;99172.10;;;7.52;32.34
65013;BME280;51715;39.432;-77.518;2022-12-18T03:47:55;99178.72;;;7.51;32.45
65013;BME280;51715;39.432;-77.518;2022-12-18T03:50:45;99175.86;;;7.39;32.64
65013;BME280;51715;39.432;-77.518;2022-12-18T03:53:32;99181.78;;;7.17;32.40
65013;BME280;51715;39.432;-77.518;2022-12-18T03:56:14;99183.12;;;7.03;32.10
65013;BME280;51715;39.432;-77.518;2022-12-18T03:58:55;99180.59;;;7.31;31.86
65013;BME280;51715;39.432;-77.518;2022-12-18T04:01:38;99174.54;;;7.30;31.49
65013;BME280;51715;39.432;-77.518;2022-12-18T04:04:18;99182.51;;;7.10;32.18
65013;BME280;51715;39.432;-77.518;2022-12-18T04:06:58;99185.40;;;7.01;31.56
65013;BME280;51715;39.432;-77.518;2022-12-18T04:09:37;99190.07;;;7.29;31.63
65013;BME280;51715;39.432;-77.518;2022-12-18T04:12:16;99198.73;;;7.14;31.79
65013;BME280;51715;39.432;-77.518;2022-12-18T04:14:55;99199.28;;;7.01;32.14
65013;BME280;51715;39.432;-77.518;2022-12-18T04:17:34;99199.66;;;7.16;32.50
65013;BME280;51715;39.432;-77.518;2022-12-18T04:20:12;99195.19;;;7.28;32.17
65013;BME280;51715;39.432;-77.518;2022-12-18T04:22:51;99206.94;;;7.14;31.88
65013;BME280;51715;39.432;-77.518;2022-12-18T04:25:29;99208.73;;;7.41;32.00
65013;BME280;51715;39.432;-77.518;2022-12-18T04:28:07;99201.87;;;7.53;31.58
65013;BME280;51715;39.432;-77.518;2022-12-18T04:30:45;99199.98;;;7.48;31.24
65013;BME280;51715;39.432;-77.518;2022-12-18T04:33:23;99207.83;;;7.43;31.41
65013;BME280;51715;39.432;-77.518;2022-12-18T04:36:01;99210.89;;;7.48;31.54
65013;BME280;51715;39.432;-77.518;2022-12-18T04:38:40;99204.84;;;7.51;31.03
65013;BME280;51715;39.432;-77.518;2022-12-18T04:41:18;99194.57;;;7.26;31.09
65013;BME280;51715;39.432;-77.518;2022-12-18T04:43:56;99183.42;;;7.51;30.99
65013;BME280;51715;39.432;-77.518;2022-12-18T04:46:34;99168.01;;;7.49;30.52
65013;BME280;51715;39.432;-77.518;2022-12-18T04:49:12;99168.01;;;7.53;30.02
65013;BME280;51715;39.432;-77.518;2022-12-18T04:51:50;99171.15;;;7.48;30.19
65013;BME280;51715;39.432;-77.518;2022-12-18T04:54:28;99160.79;;;7.78;30.61
65013;BME280;51715;39.432;-77.518;2022-12-18T04:57:06;99149.98;;;7.58;30.51
65013;BME280;51715;39.432;-77.518;2022-12-18T04:59:45;99150.13;;;7.55;30.60
65013;BME280;51715;39.432;-77.518;2022-12-18T05:03:44;99151.04;;;7.40;30.00
65013;BME280;51715;39.432;-77.518;2022-12-18T05:06:13;99141.60;;;7.51;29.98
65013;BME280;51715;39.432;-77.518;2022-12-18T05:08:42;99140.34;;;7.20;29.94
65013;BME280;51715;39.432;-77.518;2022-12-18T05:11:13;99142.30;;;7.49;30.18
65013;BME280;51715;39.432;-77.518;2022-12-18T05:13:43;99134.25;;;7.81;29.88
65013;BME280;51715;39.432;-77.518;2022-12-18T05:16:13;99135.23;;;7.52;30.31
65013;BME280;51715;39.432;-77.518;2022-12-18T06:13:11;99179.78;;;6.57;32.08
65013;BME280;51715;39.432;-77.518;2022-12-18T06:15:39;99180.96;;;5.84;31.61
65013;BME280;51715;39.432;-77.518;2022-12-18T06:18:06;99181.40;;;6.50;30.46
65013;BME280;51715;39.432;-77.518;2022-12-18T06:20:34;99181.72;;;6.46;29.43
65013;BME280;51715;39.432;-77.518;2022-12-18T06:23:01;99180.50;;;7.07;28.68
65013;BME280;51715;39.432;-77.518;2022-12-18T06:25:28;99182.64;;;7.27;28.43
65013;BME280;51715;39.432;-77.518;2022-12-18T06:27:56;99182.00;;;7.45;28.07
65013;BME280;51715;39.432;-77.518;2022-12-18T06:30:25;99185.14;;;8.72;27.87
65013;BME280;51715;39.432;-77.518;2022-12-18T06:32:53;99192.42;;;8.03;28.54
65013;BME280;51715;39.432;-77.518;2022-12-18T06:35:21;99193.52;;;7.30;29.44
65013;BME280;51715;39.432;-77.518;2022-12-18T06:37:50;99194.54;;;7.12;29.55
65013;BME280;51715;39.432;-77.518;2022-12-18T06:40:18;99200.34;;;7.07;29.86
65013;BME280;51715;39.432;-77.518;2022-12-18T06:42:47;99200.73;;;7.05;29.93
65013;BME280;51715;39.432;-77.518;2022-12-18T06:45:17;99203.77;;;6.74;30.74
65013;BME280;51715;39.432;-77.518;2022-12-18T06:47:45;99196.04;;;6.42;30.71
65013;BME280;51715;39.432;-77.518;2022-12-18T06:50:14;99194.11;;;6.71;30.83
65013;BME280;51715;39.432;-77.518;2022-12-18T06:52:42;99193.92;;;6.90;30.55
65013;BME280;51715;39.432;-77.518;2022-12-18T06:55:11;99195.85;;;6.83;30.50
65013;BME280;51715;39.432;-77.518;2022-12-18T06:57:39;99199.75;;;6.70;30.29
65013;BME280;51715;39.432;-77.518;2022-12-18T07:00:08;99198.80;;;6.63;30.28
65013;BME280;51715;39.432;-77.518;2022-12-18T07:02:37;99202.28;;;6.79;30.17
65013;BME280;51715;39.432;-77.518;2022-12-18T07:05:07;99204.51;;;6.96;29.73
65013;BME280;51715;39.432;-77.518;2022-12-18T07:07:36;99203.25;;;6.98;29.87
65013;BME280;51715;39.432;-77.518;2022-12-18T07:10:05;99202.90;;;6.81;29.66
65013;BME280;51715;39.432;-77.518;2022-12-18T07:12:34;99196.00;;;6.24;30.03
65013;BME280;51715;39.432;-77.518;2022-12-18T07:15:02;99197.33;;;6.73;29.88
65013;BME280;51715;39.432;-77.518;2022-12-18T07:17:31;99200.07;;;6.88;29.88
65013;BME280;51715;39.432;-77.518;2022-12-18T07:19:59;99200.22;;;6.80;29.92
65013;BME280;51715;39.432;-77.518;2022-12-18T07:22:26;99201.29;;;7.17;29.78
65013;BME280;51715;39.432;-77.518;2022-12-18T07:24:54;99197.05;;;7.01;29.48
65013;BME280;51715;39.432;-77.518;2022-12-18T07:27:23;99200.90;;;6.80;29.51
65013;BME280;51715;39.432;-77.518;2022-12-18T07:29:51;99201.73;;;7.35;29.57
65013;BME280;51715;39.432;-77.518;2022-12-18T07:32:20;99199.80;;;7.10;29.40
65013;BME280;51715;39.432;-77.518;2022-12-18T07:34:49;99203.39;;;7.13;29.42
65013;BME280;51715;39.432;-77.518;2022-12-18T07:37:17;99197.49;;;7.28;29.48
65013;BME280;51715;39.432;-77.518;2022-12-18T07:39:46;99197.90;;;6.96;29.39
65013;BME280;51715;39.432;-77.518;2022-12-18T07:42:14;99199.02;;;7.07;29.45
65013;BME280;51715;39.432;-77.518;2022-12-18T07:44:42;99192.82;;;7.06;29.59
65013;BME280;51715;39.432;-77.518;2022-12-18T07:47:10;99195.94;;;6.90;29.50
65013;BME280;51715;39.432;-77.518;2022-12-18T07:49:38;99197.10;;;7.10;29.41
65013;BME280;51715;39.432;-77.518;2022-12-18T07:52:07;99198.80;;;6.98;29.27
65013;BME280;51715;39.432;-77.518;2022-12-18T07:54:34;99191.48;;;6.42;29.76
65013;BME280;51715;39.432;-77.518;2022-12-18T07:57:02;99193.54;;;6.54;29.55
65013;BME280;51715;39.432;-77.518;2022-12-18T07:59:30;99190.07;;;6.62;29.30
65013;BME280;51715;39.432;-77.518;2022-12-18T08:01:59;99194.15;;;6.33;30.06
65013;BME280;51715;39.432;-77.518;2022-12-18T08:04:28;99193.34;;;6.21;30.09
65013;BME280;51715;39.432;-77.518;2022-12-18T08:06:56;99197.89;;;5.52;31.50
65013;BME280;51715;39.432;-77.518;2022-12-18T08:09:24;99193.16;;;5.20;31.30
65013;BME280;51715;39.432;-77.518;2022-12-18T08:11:54;99194.64;;;5.64;31.12
65013;BME280;51715;39.432;-77.518;2022-12-18T08:14:22;99194.62;;;5.40;30.81
65013;BME280;51715;39.432;-77.518;2022-12-18T08:16:51;99189.96;;;6.05;30.31
65013;BME280;51715;39.432;-77.518;2022-12-18T08:19:20;99193.28;;;5.60;30.52
65013;BME280;51715;39.432;-77.518;2022-12-18T08:21:48;99196.07;;;5.76;30.67
65013;BME280;51715;39.432;-77.518;2022-12-18T08:24:16;99197.95;;;5.66;30.59
65013;BME280;51715;39.432;-77.518;2022-12-18T08:26:44;99195.28;;;5.88;30.20
65013;BME280;51715;39.432;-77.518;2022-12-18T08:29:12;99205.54;;;5.96;30.18
65013;BME280;51715;39.432;-77.518;2022-12-18T08:31:41;99202.16;;;6.43;30.00
65013;BME280;51715;39.432;-77.518;2022-12-18T08:34:10;99203.43;;;6.42;29.42
65013;BME280;51715;39.432;-77.518;2022-12-18T08:36:38;99207.84;;;6.21;29.85
65013;BME280;51715;39.432;-77.518;2022-12-18T08:39:06;99212.62;;;6.42;29.81
65013;BME280;51715;39.432;-77.518;2022-12-18T08:41:34;99213.60;;;6.40;29.70
65013;BME280;51715;39.432;-77.518;2022-12-18T08:44:02;99214.30;;;6.12;29.78
65013;BME280;51715;39.432;-77.518;2022-12-18T08:46:35;99215.49;;;6.39;29.87
65013;BME280;51715;39.432;-77.518;2022-12-18T08:49:03;99218.63;;;6.21;29.75
65013;BME280;51715;39.432;-77.518;2022-12-18T08:51:32;99216.39;;;6.41;29.85
65013;BME280;51715;39.432;-77.518;2022-12-18T08:54:01;99219.95;;;6.34;29.70
65013;BME280;51715;39.432;-77.518;2022-12-18T08:56:29;99223.33;;;6.57;29.65
65013;BME280;51715;39.432;-77.518;2022-12-18T08:58:57;99220.04;;;6.62;29.65
65013;BME280;51715;39.432;-77.518;2022-12-18T09:01:26;99224.10;;;6.23;29.97
65013;BME280;51715;39.432;-77.518;2022-12-18T09:03:54;99222.76;;;6.60;29.76
65013;BME280;51715;39.432;-77.518;2022-12-18T09:06:23;99222.38;;;6.69;29.75
65013;BME280;51715;39.432;-77.518;2022-12-18T09:08:51;99217.93;;;6.36;29.98
65013;BME280;51715;39.432;-77.518;2022-12-18T09:11:21;99217.78;;;6.70;29.46
65013;BME280;51715;39.432;-77.518;2022-12-18T09:13:51;99218.83;;;6.45;29.27
65013;BME280;51715;39.432;-77.518;2022-12-18T09:16:19;99222.57;;;6.08;30.25
65013;BME280;51715;39.432;-77.518;2022-12-18T09:18:47;99224.10;;;5.90;30.59
65013;BME280;51715;39.432;-77.518;2022-12-18T09:21:18;99226.02;;;5.67;30.51
65013;BME280;51715;39.432;-77.518;2022-12-18T09:23:50;99228.95;;;6.08;30.00
65013;BME280;51715;39.432;-77.518;2022-12-18T09:26:19;99230.91;;;5.89;30.10
65013;BME280;51715;39.432;-77.518;2022-12-18T09:28:48;99232.84;;;5.13;30.65
65013;BME280;51715;39.432;-77.518;2022-12-18T09:31:19;99237.41;;;5.12;30.81
65013;BME280;51715;39.432;-77.518;2022-12-18T09:33:47;99241.48;;;5.11;31.00
65013;BME280;51715;39.432;-77.518;2022-12-18T09:36:17;99242.76;;;4.91;31.18
65013;BME280;51715;39.432;-77.518;2022-12-18T09:38:45;99240.72;;;5.55;30.28
65013;BME280;51715;39.432;-77.518;2022-12-18T09:41:27;99239.73;;;5.12;30.83
65013;BME280;51715;39.432;-77.518;2022-12-18T09:44:05;99243.26;;;5.33;30.73
65013;BME280;51715;39.432;-77.518;2022-12-18T09:46:42;99245.85;;;5.17;30.91
65013;BME280;51715;39.432;-77.518;2022-12-18T09:49:14;99247.84;;;5.17;31.12
65013;BME280;51715;39.432;-77.518;2022-12-18T09:51:45;99248.57;;;4.82;31.46
65013;BME280;51715;39.432;-77.518;2022-12-18T09:54:20;99249.49;;;4.98;31.33
65013;BME280;51715;39.432;-77.518;2022-12-18T09:56:49;99251.72;;;5.47;30.72
65013;BME280;51715;39.432;-77.518;2022-12-18T09:59:23;99251.09;;;4.80;30.86
65013;BME280;51715;39.432;-77.518;2022-12-18T10:01:52;99254.86;;;5.42;31.09
65013;BME280;51715;39.432;-77.518;2022-12-18T10:04:21;99256.78;;;5.32;30.44
65013;BME280;51715;39.432;-77.518;2022-12-18T10:06:54;99259.72;;;5.47;30.36
65013;BME280;51715;39.432;-77.518;2022-12-18T10:09:31;99264.23;;;5.53;30.31
65013;BME280;51715;39.432;-77.518;2022-12-18T10:12:07;99266.29;;;5.49;30.32
65013;BME280;51715;39.432;-77.518;2022-12-18T10:14:43;99261.19;;;5.88;30.34
65013;BME280;51715;39.432;-77.518;2022-12-18T10:17:20;99263.04;;;5.68;29.99
65013;BME280;51715;39.432;-77.518;2022-12-18T10:19:57;99263.97;;;5.69;29.96
65013;BME280;51715;39.432;-77.518;2022-12-18T10:22:40;99266.14;;;5.77;29.81
65013;BME280;51715;39.432;-77.518;2022-12-18T10:25:20;99268.87;;;5.76;29.83
65013;BME280;51715;39.432;-77.518;2022-12-18T10:27:53;99268.24;;;5.26;30.64
65013;BME280;51715;39.432;-77.518;2022-12-18T10:30:24;99271.91;;;5.48;30.77
65013;BME280;51715;39.432;-77.518;2022-12-18T10:32:53;99267.99;;;5.39;30.75
65013;BME280;51715;39.432;-77.518;2022-12-18T10:35:23;99269.08;;;4.98;30.91
65013;BME280;51715;39.432;-77.518;2022-12-18T10:38:23;99271.77;;;4.47;32.30
65013;BME280;51715;39.432;-77.518;2022-12-18T10:40:53;99273.65;;;4.73;31.65
65013;BME280;51715;39.432;-77.518;2022-12-18T10:43:24;99278.29;;;4.53;31.93
65013;BME280;51715;39.432;-77.518;2022-12-18T10:46:04;99282.83;;;4.24;32.57
65013;BME280;51715;39.432;-77.518;2022-12-18T10:48:35;99282.12;;;4.18;32.41
65013;BME280;51715;39.432;-77.518;2022-12-18T10:51:04;99288.40;;;3.61;33.32
65013;BME280;51715;39.432;-77.518;2022-12-18T10:53:35;99298.81;;;4.10;33.38
65013;BME280;51715;39.432;-77.518;2022-12-18T10:56:06;99302.90;;;4.38;32.82
65013;BME280;51715;39.432;-77.518;2022-12-18T10:58:36;99305.31;;;4.56;32.64
65013;BME280;51715;39.432;-77.518;2022-12-18T11:01:08;99313.10;;;4.60;32.08
65013;BME280;51715;39.432;-77.518;2022-12-18T11:03:39;99320.09;;;4.55;31.75
65013;BME280;51715;39.432;-77.518;2022-12-18T11:06:10;99325.90;;;4.72;31.90
65013;BME280;51715;39.432;-77.518;2022-12-18T11:08:41;99332.36;;;4.57;31.66
65013;BME280;51715;39.432;-77.518;2022-12-18T11:11:18;99344.91;;;4.57;32.12
65013;BME280;51715;39.432;-77.518;2022-12-18T11:13:54;99346.73;;;4.74;32.11
65013;BME280;51715;39.432;-77.518;2022-12-18T11:16:25;99349.65;;;4.36;32.36
65013;BME280;51715;39.432;-77.518;2022-12-18T11:18:54;99347.28;;;4.48;32.57
65013;BME280;51715;39.432;-77.518;2022-12-18T11:21:39;99346.86;;;4.58;32.43
65013;BME280;51715;39.432;-77.518;2022-12-18T11:24:20;99344.84;;;4.56;32.59
65013;BME280;51715;39.432;-77.518;2022-12-18T11:26:49;99350.48;;;4.26;33.14
65013;BME280;51715;39.432;-77.518;2022-12-18T11:29:23;99357.47;;;4.39;33.08
65013;BME280;51715;39.432;-77.518;2022-12-18T11:31:52;99359.80;;;4.34;33.39
65013;BME280;51715;39.432;-77.518;2022-12-18T11:34:43;99366.31;;;4.55;33.48
65013;BME280;51715;39.432;-77.518;2022-12-18T11:37:13;99370.70;;;4.64;33.65
65013;BME280;51715;39.432;-77.518;2022-12-18T11:39:46;99368.85;;;4.26;34.18
65013;BME280;51715;39.432;-77.518;2022-12-18T11:42:22;99373.87;;;4.34;34.20
65013;BME280;51715;39.432;-77.518;2022-12-18T11:44:57;99374.62;;;4.62;33.83
65013;BME280;51715;39.432;-77.518;2022-12-18T11:47:32;99376.54;;;4.38;34.16
65013;BME280;51715;39.432;-77.518;2022-12-18T11:50:14;99382.54;;;4.84;34.06
65013;BME280;51715;39.432;-77.518;2022-12-18T11:52:44;99383.58;;;4.96;34.04
65013;BME280;51715;39.432;-77.518;2022-12-18T11:55:14;99386.00;;;4.92;33.75
65013;BME280;51715;39.432;-77.518;2022-12-18T11:57:51;99382.00;;;4.95;33.70
65013;BME280;51715;39.432;-77.518;2022-12-18T12:00:23;99387.33;;;5.37;33.51
65013;BME280;51715;39.432;-77.518;2022-12-18T12:03:13;99387.61;;;5.56;33.18
65013;BME280;51715;39.432;-77.518;2022-12-18T12:05:53;99389.24;;;5.17;33.03
65013;BME280;51715;39.432;-77.518;2022-12-18T12:08:32;99395.33;;;5.47;33.13
65013;BME280;51715;39.432;-77.518;2022-12-18T12:11:08;99394.17;;;5.19;33.26
65013;BME280;51715;39.432;-77.518;2022-12-18T12:13:45;99394.93;;;5.39;33.11
65013;BME280;51715;39.432;-77.518;2022-12-18T12:16:23;99392.06;;;5.28;33.16
65013;BME280;51715;39.432;-77.518;2022-12-18T12:19:04;99394.75;;;4.62;33.67
65013;BME280;51715;39.432;-77.518;2022-12-18T12:21:41;99395.68;;;4.89;33.48
65013;BME280;51715;39.432;-77.518;2022-12-18T12:24:24;99398.15;;;5.07;33.11
65013;BME280;51715;39.432;-77.518;2022-12-18T12:27:00;99406.38;;;5.09;32.77
65013;BME280;51715;39.432;-77.518;2022-12-18T12:29:42;99404.04;;;4.95;32.40
65013;BME280;51715;39.432;-77.518;2022-12-18T12:32:25;99405.50;;;4.43;32.87
65013;BME280;51715;39.432;-77.518;2022-12-18T12:35:08;99403.87;;;4.31;32.94
65013;BME280;51715;39.432;-77.518;2022-12-18T12:37:47;99402.31;;;4.95;32.41
65013;BME280;51715;39.432;-77.518;2022-12-18T12:40:24;99406.35;;;4.80;32.04
65013;BME280;51715;39.432;-77.518;2022-12-18T12:42:57;99404.93;;;4.61;31.78
65013;BME280;51715;39.432;-77.518;2022-12-18T12:45:30;99405.66;;;4.84;32.02
65013;BME280;51715;39.432;-77.518;2022-12-18T13:36:03;99464.00;;;3.30;34.59
65013;BME280;51715;39.432;-77.518;2022-12-18T13:38:36;99464.82;;;1.56;34.47
65013;BME280;51715;39.432;-77.518;2022-12-18T13:41:22;99469.32;;;2.88;32.62
65013;BME280;51715;39.432;-77.518;2022-12-18T13:43:51;99466.13;;;3.26;31.32
65013;BME280;51715;39.432;-77.518;2022-12-18T13:46:22;99464.34;;;4.01;29.86
65013;BME280;51715;39.432;-77.518;2022-12-18T13:48:55;99465.86;;;3.65;31.06
65013;BME280;51715;39.432;-77.518;2022-12-18T13:51:23;99467.12;;;4.62;29.75
65013;BME280;51715;39.432;-77.518;2022-12-18T13:53:56;99472.42;;;4.49;31.31
65013;BME280;51715;39.432;-77.518;2022-12-18T13:56:28;99481.26;;;4.61;31.90
65013;BME280;51715;39.432;-77.518;2022-12-18T13:59:17;99487.25;;;4.59;31.09
65013;BME280;51715;39.432;-77.518;2022-12-18T14:01:49;99494.47;;;4.46;31.43
65013;BME280;51715;39.432;-77.518;2022-12-18T14:04:23;99490.62;;;5.48;30.11
65013;BME280;51715;39.432;-77.518;2022-12-18T14:06:56;99491.95;;;5.34;30.70
65013;BME280;51715;39.432;-77.518;2022-12-18T14:09:28;99490.37;;;5.84;30.00
65013;BME280;51715;39.432;-77.518;2022-12-18T14:11:58;99494.73;;;5.65;30.23
65013;BME280;51715;39.432;-77.518;2022-12-18T14:14:27;99505.26;;;5.41;29.70
65013;BME280;51715;39.432;-77.518;2022-12-18T14:16:56;99514.26;;;4.83;30.27
65013;BME280;51715;39.432;-77.518;2022-12-18T14:19:25;99516.36;;;5.61;30.52
65013;BME280;51715;39.432;-77.518;2022-12-18T14:21:54;99516.01;;;5.52;29.26
65013;BME280;51715;39.432;-77.518;2022-12-18T14:24:23;99524.47;;;5.49;29.63
65013;BME280;51715;39.432;-77.518;2022-12-18T14:26:52;99527.79;;;5.48;29.21
65013;BME280;51715;39.432;-77.518;2022-12-18T14:29:24;99531.39;;;5.77;29.10
65013;BME280;51715;39.432;-77.518;2022-12-18T14:32:11;99542.11;;;5.04;28.83
65013;BME280;51715;39.432;-77.518;2022-12-18T14:34:40;99536.19;;;5.03;29.32
65013;BME280;51715;39.432;-77.518;2022-12-18T14:37:10;99541.37;;;4.68;29.97
65013;BME280;51715;39.432;-77.518;2022-12-18T14:39:39;99544.59;;;4.21;31.35
65013;BME280;51715;39.432;-77.518;2022-12-18T14:42:11;99545.11;;;4.17;31.91
65013;BME280;51715;39.432;-77.518;2022-12-18T14:44:39;99547.86;;;3.74;31.19
65013;BME280;51715;39.432;-77.518;2022-12-18T14:47:14;99549.86;;;3.81;32.14
65013;BME280;51715;39.432;-77.518;2022-12-18T14:49:43;99555.16;;;3.97;32.70
65013;BME280;51715;39.432;-77.518;2022-12-18T14:52:22;99553.03;;;4.84;31.08
65013;BME280;51715;39.432;-77.518;2022-12-18T14:54:52;99555.25;;;5.45;29.87
65013;BME280;51715;39.432;-77.518;2022-12-18T14:57:23;99550.13;;;5.34;29.03
65013;BME280;51715;39.432;-77.518;2022-12-18T14:59:53;99554.81;;;5.48;29.70
65013;BME280;51715;39.432;-77.518;2022-12-18T15:02:24;99552.40;;;5.00;30.46
65013;BME280;51715;39.432;-77.518;2022-12-18T15:05:02;99550.41;;;5.51;30.69
65013;BME280;51715;39.432;-77.518;2022-12-18T15:07:42;99544.75;;;6.92;28.59
65013;BME280;51715;39.432;-77.518;2022-12-18T15:10:14;99546.90;;;7.27;27.24
65013;BME280;51715;39.432;-77.518;2022-12-18T15:12:44;99548.21;;;6.78;26.99